sensor_id;sensor_type;location;lat;lon;timestamp;pressure;altitude;pressure_sealevel;temperature;humidity
64253;BME280;50592;52.958;-7.470;2022-09-01T00:02:23;101371.38;;;12.98;100.00
64253;BME280;50592;52.958;-7.470;2022-09-01T00:04:52;101369.81;;;12.95;100.00
64253;BME280;50592;52.958;-7.470;2022-09-01T00:07:24;101356.69;;;12.94;100.00
64253;BME280;50592;52.958;-7.470;2022-09-01T00:09:51;101355.44;;;12.88;100.00
64253;BME280;50592;52.958;-7.470;2022-09-01T00:12:19;101350.41;;;12.85;100.00
64253;BME280;50592;52.958;-7.470;2022-09-01T00:14:47;101348.00;;;12.82;100.00
64253;BME280;50592;52.958;-7.470;2022-09-01T00:17:13;101348.84;;;12.82;100.00
64253;BME280;50592;52.958;-7.470;2022-09-01T00:19:39;101348.00;;;12.82;100.00
64253;BME280;50592;52.958;-7.470;2022-09-01T00:22:05;101349.53;;;12.84;100.00
64253;BME280;50592;52.958;-7.470;2022-09-01T00:24:32;101343.53;;;12.82;100.00
64253;BME280;50592;52.958;-7.470;2022-09-01T00:26:58;101340.19;;;12.80;100.00
64253;BME280;50592;52.958;-7.470;2022-09-01T00:29:24;101336.84;;;12.78;100.00
64253;BME280;50592;52.958;-7.470;2022-09-01T00:31:50;101333.19;;;12.79;100.00
64253;BME280;50592;52.958;-7.470;2022-09-01T00:34:17;101335.03;;;12.78;100.00
64253;BME280;50592;52.958;-7.470;2022-09-01T00:36:43;101332.50;;;12.77;100.00
64253;BME280;50592;52.958;-7.470;2022-09-01T00:39:09;101334.19;;;12.78;100.00
64253;BME280;50592;52.958;-7.470;2022-09-01T00:41:37;101324.41;;;12.78;100.00
64253;BME280;50592;52.958;-7.470;2022-09-01T00:44:10;101327.75;;;12.81;100.00
64253;BME280;50592;52.958;-7.470;2022-09-01T00:46:39;101327.88;;;12.79;100.00
64253;BME280;50592;52.958;-7.470;2022-09-01T00:52:01;101330.69;;;12.77;100.00
64253;BME280;50592;52.958;-7.470;2022-09-01T00:54:33;101326.94;;;12.80;100.00
64253;BME280;50592;52.958;-7.470;2022-09-01T00:57:02;101328.72;;;12.80;100.00
64253;BME280;50592;52.958;-7.470;2022-09-01T00:59:28;101317.97;;;12.81;100.00
64253;BME280;50592;52.958;-7.470;2022-09-01T01:01:55;101318.56;;;12.85;100.00
64253;BME280;50592;52.958;-7.470;2022-09-01T01:04:23;101318.41;;;12.86;100.00
64253;BME280;50592;52.958;-7.470;2022-09-01T01:06:53;101319.94;;;12.89;100.00
64253;BME280;50592;52.958;-7.470;2022-09-01T01:09:29;101330.16;;;12.94;100.00
64253;BME280;50592;52.958;-7.470;2022-09-01T01:11:58;101325.28;;;12.99;100.00
64253;BME280;50592;52.958;-7.470;2022-09-01T01:14:25;101330.28;;;13.02;100.00
64253;BME280;50592;52.958;-7.470;2022-09-01T01:16:53;101321.06;;;13.06;100.00
64253;BME280;50592;52.958;-7.470;2022-09-01T01:22:40;101307.81;;;12.96;100.00
64253;BME280;50592;52.958;-7.470;2022-09-01T01:25:38;101317.16;;;12.90;100.00
64253;BME280;50592;52.958;-7.470;2022-09-01T01:30:35;101307.09;;;12.94;100.00
64253;BME280;50592;52.958;-7.470;2022-09-01T01:33:03;101297.59;;;12.92;100.00
64253;BME280;50592;52.958;-7.470;2022-09-01T01:35:29;101300.53;;;12.88;100.00
64253;BME280;50592;52.958;-7.470;2022-09-01T01:37:57;101298.00;;;12.87;100.00
64253;BME280;50592;52.958;-7.470;2022-09-01T01:40:22;101304.03;;;12.89;100.00
64253;BME280;50592;52.958;-7.470;2022-09-01T01:42:51;101307.25;;;12.93;100.00
64253;BME280;50592;52.958;-7.470;2022-09-01T01:45:20;101296.06;;;12.99;100.00
64253;BME280;50592;52.958;-7.470;2022-09-01T01:47:47;101303.75;;;13.02;100.00
64253;BME280;50592;52.958;-7.470;2022-09-01T01:50:26;101291.91;;;12.96;100.00
64253;BME280;50592;52.958;-7.470;2022-09-01T01:52:54;101293.84;;;13.04;100.00
64253;BME280;50592;52.958;-7.470;2022-09-01T01:55:22;101296.09;;;13.09;100.00
64253;BME280;50592;52.958;-7.470;2022-09-01T01:57:52;101289.50;;;13.13;100.00
64253;BME280;50592;52.958;-7.470;2022-09-01T02:00:23;101293.41;;;13.19;100.00
64253;BME280;50592;52.958;-7.470;2022-09-01T02:02:50;101299.00;;;13.25;100.00
64253;BME280;50592;52.958;-7.470;2022-09-01T02:05:22;101296.06;;;13.28;100.00
64253;BME280;50592;52.958;-7.470;2022-09-01T02:07:52;101300.28;;;13.31;100.00
64253;BME280;50592;52.958;-7.470;2022-09-01T02:10:23;101301.78;;;13.34;100.00
64253;BME280;50592;52.958;-7.470;2022-09-01T02:12:49;101301.78;;;13.34;100.00
64253;BME280;50592;52.958;-7.470;2022-09-01T02:15:16;101300.94;;;13.33;100.00
64253;BME280;50592;52.958;-7.470;2022-09-01T02:17:42;101298.84;;;13.27;100.00
64253;BME280;50592;52.958;-7.470;2022-09-01T02:20:09;101294.69;;;13.24;100.00
64253;BME280;50592;52.958;-7.470;2022-09-01T02:22:35;101300.97;;;13.23;100.00
64253;BME280;50592;52.958;-7.470;2022-09-01T02:25:04;101292.59;;;13.18;100.00
64253;BME280;50592;52.958;-7.470;2022-09-01T02:27:31;101295.81;;;13.12;100.00
64253;BME280;50592;52.958;-7.470;2022-09-01T02:30:02;101297.47;;;13.03;100.00
64253;BME280;50592;52.958;-7.470;2022-09-01T02:32:29;101296.34;;;12.96;100.00
64253;BME280;50592;52.958;-7.470;2022-09-01T02:34:55;101286.44;;;12.88;100.00
64253;BME280;50592;52.958;-7.470;2022-09-01T02:37:26;101286.00;;;12.83;100.00
64253;BME280;50592;52.958;-7.470;2022-09-01T02:39:52;101283.78;;;12.78;100.00
64253;BME280;50592;52.958;-7.470;2022-09-01T02:42:19;101281.13;;;12.78;100.00
64253;BME280;50592;52.958;-7.470;2022-09-01T02:44:53;101288.94;;;12.80;100.00
64253;BME280;50592;52.958;-7.470;2022-09-01T02:47:20;101284.63;;;12.78;100.00
64253;BME280;50592;52.958;-7.470;2022-09-01T02:49:49;101278.19;;;12.81;100.00
64253;BME280;50592;52.958;-7.470;2022-09-01T02:52:18;101290.91;;;12.87;100.00
64253;BME280;50592;52.958;-7.470;2022-09-01T02:54:46;101282.66;;;12.90;100.00
64253;BME280;50592;52.958;-7.470;2022-09-01T02:57:16;101277.22;;;12.92;100.00
64253;BME280;50592;52.958;-7.470;2022-09-01T02:59:42;101280.16;;;12.99;100.00
64253;BME280;50592;52.958;-7.470;2022-09-01T03:02:08;101273.44;;;13.05;100.00
64253;BME280;50592;52.958;-7.470;2022-09-01T03:04:34;101284.19;;;13.13;100.00
64253;BME280;50592;52.958;-7.470;2022-09-01T03:07:05;101272.06;;;13.10;100.00
64253;BME280;50592;52.958;-7.470;2022-09-01T03:09:31;101277.22;;;13.12;100.00
64253;BME280;50592;52.958;-7.470;2022-09-01T03:11:58;101277.47;;;13.19;100.00
64253;BME280;50592;52.958;-7.470;2022-09-01T03:14:24;101271.50;;;13.17;100.00
64253;BME280;50592;52.958;-7.470;2022-09-01T03:16:51;101265.75;;;13.11;100.00
64253;BME280;50592;52.958;-7.470;2022-09-01T03:19:17;101268.00;;;13.06;100.00
64253;BME280;50592;52.958;-7.470;2022-09-01T03:21:45;101263.94;;;13.02;100.00
64253;BME280;50592;52.958;-7.470;2022-09-01T03:24:16;101265.09;;;12.99;100.00
64253;BME280;50592;52.958;-7.470;2022-09-01T03:26:44;101257.25;;;12.98;100.00
64253;BME280;50592;52.958;-7.470;2022-09-01T03:29:11;101253.75;;;12.97;100.00
64253;BME280;50592;52.958;-7.470;2022-09-01T03:31:37;101248.72;;;12.94;100.00
64253;BME280;50592;52.958;-7.470;2022-09-01T03:34:04;101244.28;;;12.95;100.00
64253;BME280;50592;52.958;-7.470;2022-09-01T03:36:35;101244.41;;;12.93;100.00
64253;BME280;50592;52.958;-7.470;2022-09-01T03:39:01;101243.72;;;12.91;100.00
64253;BME280;50592;52.958;-7.470;2022-09-01T03:41:30;101254.31;;;12.91;100.00
64253;BME280;50592;52.958;-7.470;2022-09-01T03:43:56;101244.28;;;12.85;100.00
64253;BME280;50592;52.958;-7.470;2022-09-01T03:46:26;101235.47;;;12.84;100.00
64253;BME280;50592;52.958;-7.470;2022-09-01T03:48:56;101241.91;;;12.82;100.00
64253;BME280;50592;52.958;-7.470;2022-09-01T03:51:25;101238.41;;;12.81;100.00
64253;BME280;50592;52.958;-7.470;2022-09-01T03:53:53;101241.63;;;12.85;100.00
64253;BME280;50592;52.958;-7.470;2022-09-01T03:56:20;101229.88;;;12.87;100.00
64253;BME280;50592;52.958;-7.470;2022-09-01T03:58:47;101234.47;;;12.85;100.00
64253;BME280;50592;52.958;-7.470;2022-09-01T04:01:15;101231.81;;;12.85;100.00
64253;BME280;50592;52.958;-7.470;2022-09-01T04:03:42;101226.66;;;12.84;100.00
64253;BME280;50592;52.958;-7.470;2022-09-01T04:06:12;101229.31;;;12.84;100.00
64253;BME280;50592;52.958;-7.470;2022-09-01T04:08:38;101224.72;;;12.86;100.00
64253;BME280;50592;52.958;-7.470;2022-09-01T04:11:14;101219.25;;;12.87;100.00
64253;BME280;50592;52.958;-7.470;2022-09-01T04:13:44;101219.97;;;12.89;100.00
64253;BME280;50592;52.958;-7.470;2022-09-01T04:16:19;101215.91;;;12.95;100.00
64253;BME280;50592;52.958;-7.470;2022-09-01T04:19:03;101217.47;;;12.88;100.00
64253;BME280;50592;52.958;-7.470;2022-09-01T04:21:42;101210.88;;;12.92;100.00
64253;BME280;50592;52.958;-7.470;2022-09-01T04:24:09;101213.25;;;12.95;100.00
64253;BME280;50592;52.958;-7.470;2022-09-01T04:26:35;101209.34;;;12.99;100.00
64253;BME280;50592;52.958;-7.470;2022-09-01T04:29:03;101212.41;;;13.05;100.00
64253;BME280;50592;52.958;-7.470;2022-09-01T04:31:28;101210.88;;;13.12;100.00
64253;BME280;50592;52.958;-7.470;2022-09-01T04:33:56;101208.22;;;13.12;100.00
64253;BME280;50592;52.958;-7.470;2022-09-01T04:36:29;101211.25;;;13.17;100.00
64253;BME280;50592;52.958;-7.470;2022-09-01T04:39:00;101209.31;;;13.19;100.00
64253;BME280;50592;52.958;-7.470;2022-09-01T04:41:30;101209.88;;;13.23;100.00
64253;BME280;50592;52.958;-7.470;2022-09-01T04:43:59;101213.50;;;13.22;100.00
64253;BME280;50592;52.958;-7.470;2022-09-01T04:46:31;101206.94;;;13.16;100.00
64253;BME280;50592;52.958;-7.470;2022-09-01T04:49:02;101209.16;;;13.11;100.00
64253;BME280;50592;52.958;-7.470;2022-09-01T04:51:41;101208.50;;;13.09;100.00
64253;BME280;50592;52.958;-7.470;2022-09-01T04:54:10;101206.81;;;13.08;100.00
64253;BME280;50592;52.958;-7.470;2022-09-01T04:56:43;101215.03;;;13.14;100.00
64253;BME280;50592;52.958;-7.470;2022-09-01T04:59:15;101213.25;;;13.15;100.00
64253;BME280;50592;52.958;-7.470;2022-09-01T05:01:45;101213.25;;;13.15;100.00
64253;BME280;50592;52.958;-7.470;2022-09-01T05:04:22;101218.53;;;13.15;100.00
64253;BME280;50592;52.958;-7.470;2022-09-01T05:06:51;101207.66;;;13.08;100.00
64253;BME280;50592;52.958;-7.470;2022-09-01T05:09:32;101216.88;;;13.04;100.00
64253;BME280;50592;52.958;-7.470;2022-09-01T05:16:03;101221.22;;;12.95;100.00
64253;BME280;50592;52.958;-7.470;2022-09-01T05:18:31;101217.59;;;12.96;100.00
64253;BME280;50592;52.958;-7.470;2022-09-01T05:21:04;101212.44;;;12.95;100.00
64253;BME280;50592;52.958;-7.470;2022-09-01T05:23:34;101215.34;;;12.92;100.00
64253;BME280;50592;52.958;-7.470;2022-09-01T05:26:01;101215.91;;;12.85;100.00
64253;BME280;50592;52.958;-7.470;2022-09-01T05:28:32;101214.66;;;12.80;100.00
64253;BME280;50592;52.958;-7.470;2022-09-01T05:30:59;101215.78;;;12.77;100.00
64253;BME280;50592;52.958;-7.470;2022-09-01T05:33:26;101209.50;;;12.78;100.00
64253;BME280;50592;52.958;-7.470;2022-09-01T05:35:54;101212.72;;;12.82;100.00
64253;BME280;50592;52.958;-7.470;2022-09-01T05:38:21;101214.81;;;12.78;100.00
64253;BME280;50592;52.958;-7.470;2022-09-01T05:41:00;101206.69;;;12.70;100.00
64253;BME280;50592;52.958;-7.470;2022-09-01T05:43:28;101211.47;;;12.66;100.00
64253;BME280;50592;52.958;-7.470;2022-09-01T05:45:56;101208.53;;;12.69;100.00
64253;BME280;50592;52.958;-7.470;2022-09-01T05:48:24;101202.25;;;12.70;100.00
64253;BME280;50592;52.958;-7.470;2022-09-01T05:50:50;101201.09;;;12.73;100.00
64253;BME280;50592;52.958;-7.470;2022-09-01T05:53:20;101200.28;;;12.72;100.00
64253;BME280;50592;52.958;-7.470;2022-09-01T05:55:51;101203.91;;;12.71;100.00
64253;BME280;50592;52.958;-7.470;2022-09-01T05:58:24;101197.91;;;12.69;100.00
64253;BME280;50592;52.958;-7.470;2022-09-01T06:00:53;101203.75;;;12.73;100.00
64253;BME280;50592;52.958;-7.470;2022-09-01T06:03:21;101201.81;;;12.75;100.00
64253;BME280;50592;52.958;-7.470;2022-09-01T06:05:48;101203.34;;;12.77;100.00
64253;BME280;50592;52.958;-7.470;2022-09-01T06:08:23;101198.31;;;12.84;100.00
64253;BME280;50592;52.958;-7.470;2022-09-01T06:10:50;101203.47;;;12.86;100.00
64253;BME280;50592;52.958;-7.470;2022-09-01T06:13:17;101196.22;;;12.88;100.00
64253;BME280;50592;52.958;-7.470;2022-09-01T06:15:50;101200.69;;;12.97;100.00
64253;BME280;50592;52.958;-7.470;2022-09-01T06:18:19;101204.56;;;13.03;100.00
64253;BME280;50592;52.958;-7.470;2022-09-01T06:20:53;101206.81;;;13.08;100.00
64253;BME280;50592;52.958;-7.470;2022-09-01T06:23:20;101204.16;;;13.08;100.00
64253;BME280;50592;52.958;-7.470;2022-09-01T06:25:46;101195.25;;;12.99;100.00
64253;BME280;50592;52.958;-7.470;2022-09-01T06:28:16;101209.75;;;13.05;100.00
64253;BME280;50592;52.958;-7.470;2022-09-01T06:30:44;101205.28;;;13.05;100.00
64253;BME280;50592;52.958;-7.470;2022-09-01T06:33:12;101212.41;;;13.05;100.00
64253;BME280;50592;52.958;-7.470;2022-09-01T06:35:42;101209.47;;;13.08;100.00
64253;BME280;50592;52.958;-7.470;2022-09-01T06:38:11;101212.69;;;13.11;100.00
64253;BME280;50592;52.958;-7.470;2022-09-01T06:40:40;101211.69;;;13.12;100.00
64253;BME280;50592;52.958;-7.470;2022-09-01T06:43:08;101210.59;;;13.15;100.00
64253;BME280;50592;52.958;-7.470;2022-09-01T06:45:41;101222.56;;;13.19;100.00
64253;BME280;50592;52.958;-7.470;2022-09-01T06:48:08;101215.31;;;13.21;100.00
64253;BME280;50592;52.958;-7.470;2022-09-01T06:50:37;101220.06;;;13.27;100.00
64253;BME280;50592;52.958;-7.470;2022-09-01T06:53:04;101216.25;;;13.30;100.00
64253;BME280;50592;52.958;-7.470;2022-09-01T06:55:39;101218.78;;;13.32;100.00
64253;BME280;50592;52.958;-7.470;2022-09-01T06:58:07;101215.69;;;13.36;100.00
64253;BME280;50592;52.958;-7.470;2022-09-01T07:00:38;101212.88;;;13.48;100.00
64253;BME280;50592;52.958;-7.470;2022-09-01T07:03:09;101215.53;;;13.58;100.00
64253;BME280;50592;52.958;-7.470;2022-09-01T07:05:56;101214.25;;;13.62;100.00
64253;BME280;50592;52.958;-7.470;2022-09-01T07:08:43;101222.22;;;13.62;100.00
64253;BME280;50592;52.958;-7.470;2022-09-01T07:11:27;101215.53;;;13.58;100.00
64253;BME280;50592;52.958;-7.470;2022-09-01T07:13:57;101212.72;;;13.59;100.00
64253;BME280;50592;52.958;-7.470;2022-09-01T07:16:27;101211.06;;;13.58;100.00
64253;BME280;50592;52.958;-7.470;2022-09-01T07:18:56;101209.50;;;13.66;100.00
64253;BME280;50592;52.958;-7.470;2022-09-01T07:21:25;101215.94;;;13.63;100.00
64253;BME280;50592;52.958;-7.470;2022-09-01T07:23:51;101214.69;;;13.57;100.00
64253;BME280;50592;52.958;-7.470;2022-09-01T07:26:17;101218.03;;;13.59;100.00
64253;BME280;50592;52.958;-7.470;2022-09-01T07:28:45;101217.75;;;13.62;100.00
64253;BME280;50592;52.958;-7.470;2022-09-01T07:31:25;101219.72;;;13.60;100.00
64253;BME280;50592;52.958;-7.470;2022-09-01T07:33:55;101224.34;;;13.58;100.00
64253;BME280;50592;52.958;-7.470;2022-09-01T07:36:24;101222.06;;;13.63;100.00
64253;BME280;50592;52.958;-7.470;2022-09-01T07:38:51;101221.94;;;13.65;100.00
64253;BME280;50592;52.958;-7.470;2022-09-01T07:41:22;101224.44;;;13.67;100.00
64253;BME280;50592;52.958;-7.470;2022-09-01T07:44:08;101224.84;;;13.72;100.00
64253;BME280;50592;52.958;-7.470;2022-09-01T07:47:07;101227.63;;;13.80;100.00
64253;BME280;50592;52.958;-7.470;2022-09-01T07:49:34;101224.66;;;13.83;100.00
64253;BME280;50592;52.958;-7.470;2022-09-01T07:52:05;101219.06;;;13.86;100.00
64253;BME280;50592;52.958;-7.470;2022-09-01T07:54:32;101225.88;;;13.89;100.00
64253;BME280;50592;52.958;-7.470;2022-09-01T07:56:59;101220.13;;;13.94;100.00
64253;BME280;50592;52.958;-7.470;2022-09-01T07:59:26;101221.66;;;13.96;100.00
64253;BME280;50592;52.958;-7.470;2022-09-01T08:02:10;101218.28;;;14.04;100.00
64253;BME280;50592;52.958;-7.470;2022-09-01T08:04:36;101223.13;;;14.09;100.00
64253;BME280;50592;52.958;-7.470;2022-09-01T08:07:05;101217.63;;;14.20;100.00
64253;BME280;50592;52.958;-7.470;2022-09-01T08:09:30;101220.13;;;14.22;100.00
64253;BME280;50592;52.958;-7.470;2022-09-01T08:11:57;101217.84;;;14.27;100.00
64253;BME280;50592;52.958;-7.470;2022-09-01T08:14:23;101225.91;;;14.35;100.00
64253;BME280;50592;52.958;-7.470;2022-09-01T08:16:49;101227.22;;;14.49;100.00
64253;BME280;50592;52.958;-7.470;2022-09-01T08:19:15;101232.31;;;14.61;100.00
64253;BME280;50592;52.958;-7.470;2022-09-01T08:22:14;101230.34;;;14.63;100.00
64253;BME280;50592;52.958;-7.470;2022-09-01T08:24:52;101233.16;;;14.61;100.00
64253;BME280;50592;52.958;-7.470;2022-09-01T08:27:18;101229.81;;;14.59;100.00
64253;BME280;50592;52.958;-7.470;2022-09-01T08:29:44;101231.72;;;14.67;100.00
64253;BME280;50592;52.958;-7.470;2022-09-01T08:32:10;101229.09;;;14.85;100.00
64253;BME280;50592;52.958;-7.470;2022-09-01T08:34:36;101229.00;;;14.95;100.00
64253;BME280;50592;52.958;-7.470;2022-09-01T08:37:04;101230.94;;;15.11;100.00
64253;BME280;50592;52.958;-7.470;2022-09-01T08:39:30;101225.75;;;15.28;100.00
64253;BME280;50592;52.958;-7.470;2022-09-01T08:44:56;101217.97;;;15.35;100.00
64253;BME280;50592;52.958;-7.470;2022-09-01T08:47:24;101224.16;;;15.44;100.00
64253;BME280;50592;52.958;-7.470;2022-09-01T08:49:49;101221.03;;;15.48;100.00
64253;BME280;50592;52.958;-7.470;2022-09-01T08:52:37;101232.28;;;15.60;100.00
64253;BME280;50592;52.958;-7.470;2022-09-01T08:57:45;101220.00;;;15.76;99.17
64253;BME280;50592;52.958;-7.470;2022-09-01T09:00:21;101222.16;;;15.72;98.51
64253;BME280;50592;52.958;-7.470;2022-09-01T09:03:05;101210.16;;;15.68;98.68
64253;BME280;50592;52.958;-7.470;2022-09-01T09:09:00;101215.88;;;15.82;97.78
64253;BME280;50592;52.958;-7.470;2022-09-01T09:19:10;101204.00;;;16.11;94.31
64253;BME280;50592;52.958;-7.470;2022-09-01T09:21:41;101198.19;;;16.16;93.58
64253;BME280;50592;52.958;-7.470;2022-09-01T09:24:36;101203.19;;;16.19;92.52
64253;BME280;50592;52.958;-7.470;2022-09-01T09:27:31;101198.22;;;16.32;92.72
64253;BME280;50592;52.958;-7.470;2022-09-01T09:32:43;101188.25;;;16.76;89.50
64253;BME280;50592;52.958;-7.470;2022-09-01T09:37:51;101188.25;;;16.93;87.20
64253;BME280;50592;52.958;-7.470;2022-09-01T09:40:22;101191.22;;;17.06;86.84
64253;BME280;50592;52.958;-7.470;2022-09-01T09:45:25;101180.00;;;17.36;85.84
64253;BME280;50592;52.958;-7.470;2022-09-01T09:47:55;101175.47;;;17.53;85.18
64253;BME280;50592;52.958;-7.470;2022-09-01T09:50:28;101166.75;;;17.59;84.37
64253;BME280;50592;52.958;-7.470;2022-09-01T09:56:01;101164.00;;;17.76;81.86
64253;BME280;50592;52.958;-7.470;2022-09-01T09:58:39;101155.63;;;17.79;80.01
64253;BME280;50592;52.958;-7.470;2022-09-01T10:01:27;101160.63;;;17.82;79.36
64253;BME280;50592;52.958;-7.470;2022-09-01T10:03:56;101161.38;;;18.00;78.65
64253;BME280;50592;52.958;-7.470;2022-09-01T10:06:33;101158.53;;;18.33;75.97
64253;BME280;50592;52.958;-7.470;2022-09-01T10:09:05;101150.41;;;18.41;74.07
64253;BME280;50592;52.958;-7.470;2022-09-01T10:11:38;101153.75;;;18.43;73.15
64253;BME280;50592;52.958;-7.470;2022-09-01T10:14:13;101149.41;;;18.42;71.73
64253;BME280;50592;52.958;-7.470;2022-09-01T10:16:41;101157.09;;;18.45;71.05
64253;BME280;50592;52.958;-7.470;2022-09-01T10:19:12;101146.56;;;18.44;69.71
64253;BME280;50592;52.958;-7.470;2022-09-01T10:21:41;101143.66;;;18.54;68.88
64253;BME280;50592;52.958;-7.470;2022-09-01T10:26:47;101133.72;;;18.93;66.60
64253;BME280;50592;52.958;-7.470;2022-09-01T10:29:19;101117.97;;;19.13;66.40
64253;BME280;50592;52.958;-7.470;2022-09-01T10:31:46;101122.97;;;19.31;63.94
64253;BME280;50592;52.958;-7.470;2022-09-01T10:34:14;101119.53;;;19.38;61.86
64253;BME280;50592;52.958;-7.470;2022-09-01T10:36:44;101125.91;;;19.52;61.36
64253;BME280;50592;52.958;-7.470;2022-09-01T10:39:12;101125.41;;;19.63;59.47
64253;BME280;50592;52.958;-7.470;2022-09-01T10:41:42;101130.78;;;19.63;56.04
64253;BME280;50592;52.958;-7.470;2022-09-01T10:44:10;101131.25;;;19.52;58.33
64253;BME280;50592;52.958;-7.470;2022-09-01T10:46:44;101128.56;;;19.37;57.32
64253;BME280;50592;52.958;-7.470;2022-09-01T10:55:19;101119.88;;;18.89;58.71
64253;BME280;50592;52.958;-7.470;2022-09-01T10:58:19;101114.44;;;18.82;57.25
64253;BME280;50592;52.958;-7.470;2022-09-01T11:00:51;101116.09;;;18.83;58.81
64253;BME280;50592;52.958;-7.470;2022-09-01T11:13:48;101101.25;;;19.26;53.49
64253;BME280;50592;52.958;-7.470;2022-09-01T11:18:52;101104.88;;;18.65;55.29
64253;BME280;50592;52.958;-7.470;2022-09-01T11:21:28;101103.13;;;18.57;53.77
64253;BME280;50592;52.958;-7.470;2022-09-01T11:26:58;101090.97;;;18.69;55.15
64253;BME280;50592;52.958;-7.470;2022-09-01T11:29:56;101098.22;;;18.60;52.24
64253;BME280;50592;52.958;-7.470;2022-09-01T11:32:30;101090.03;;;18.77;53.78
64253;BME280;50592;52.958;-7.470;2022-09-01T11:34:58;101088.84;;;18.95;53.71
64253;BME280;50592;52.958;-7.470;2022-09-01T11:37:25;101086.94;;;19.19;53.49
64253;BME280;50592;52.958;-7.470;2022-09-01T11:39:54;101092.16;;;19.42;53.19
64253;BME280;50592;52.958;-7.470;2022-09-01T11:42:27;101081.03;;;19.61;53.10
64253;BME280;50592;52.958;-7.470;2022-09-01T11:45:17;101073.41;;;19.79;51.36
64253;BME280;50592;52.958;-7.470;2022-09-01T11:47:46;101079.66;;;19.87;53.26
64253;BME280;50592;52.958;-7.470;2022-09-01T11:50:24;101074.38;;;19.93;53.39
64253;BME280;50592;52.958;-7.470;2022-09-01T11:52:54;101074.91;;;20.26;53.11
64253;BME280;50592;52.958;-7.470;2022-09-01T11:55:48;101067.03;;;20.24;50.03
64253;BME280;50592;52.958;-7.470;2022-09-01T11:58:28;101069.75;;;20.31;50.83
64253;BME280;50592;52.958;-7.470;2022-09-01T12:01:18;101063.91;;;20.20;51.05
64253;BME280;50592;52.958;-7.470;2022-09-01T12:03:47;101073.59;;;20.22;51.65
64253;BME280;50592;52.958;-7.470;2022-09-01T12:06:20;101068.44;;;20.20;49.02
64253;BME280;50592;52.958;-7.470;2022-09-01T12:11:32;101063.63;;;20.37;49.41
64253;BME280;50592;52.958;-7.470;2022-09-01T12:13:59;101062.88;;;20.50;50.32
64253;BME280;50592;52.958;-7.470;2022-09-01T12:16:28;101062.00;;;20.72;50.54
64253;BME280;50592;52.958;-7.470;2022-09-01T12:18:56;101049.63;;;20.77;50.35
64253;BME280;50592;52.958;-7.470;2022-09-01T12:21:34;101062.16;;;20.35;50.76
64253;BME280;50592;52.958;-7.470;2022-09-01T12:26:40;101064.88;;;20.13;51.94
64253;BME280;50592;52.958;-7.470;2022-09-01T12:29:06;101062.13;;;20.06;52.34
64253;BME280;50592;52.958;-7.470;2022-09-01T12:31:33;101052.97;;;20.22;52.25
64253;BME280;50592;52.958;-7.470;2022-09-01T12:33:59;101049.22;;;20.45;51.82
64253;BME280;50592;52.958;-7.470;2022-09-01T12:36:35;101052.59;;;20.54;50.74
64253;BME280;50592;52.958;-7.470;2022-09-01T12:39:18;101049.97;;;20.10;50.55
64253;BME280;50592;52.958;-7.470;2022-09-01T12:41:45;101047.66;;;19.85;52.70
64253;BME280;50592;52.958;-7.470;2022-09-01T12:44:33;101049.59;;;19.54;52.99
64253;BME280;50592;52.958;-7.470;2022-09-01T12:47:42;101053.22;;;19.46;54.12
64253;BME280;50592;52.958;-7.470;2022-09-01T12:52:28;101045.69;;;19.35;54.66
64253;BME280;50592;52.958;-7.470;2022-09-01T12:57:29;101045.00;;;19.48;54.49
64253;BME280;50592;52.958;-7.470;2022-09-01T13:02:43;101035.91;;;19.86;53.64
64253;BME280;50592;52.958;-7.470;2022-09-01T13:05:31;101038.84;;;19.91;53.24
64253;BME280;50592;52.958;-7.470;2022-09-01T13:08:04;101023.84;;;19.97;53.38
64253;BME280;50592;52.958;-7.470;2022-09-01T13:10:33;101034.38;;;20.20;52.87
64253;BME280;50592;52.958;-7.470;2022-09-01T13:13:04;101030.34;;;20.31;52.67
64253;BME280;50592;52.958;-7.470;2022-09-01T13:15:30;101027.84;;;20.30;52.37
64253;BME280;50592;52.958;-7.470;2022-09-01T13:17:56;101033.34;;;20.22;51.88
64253;BME280;50592;52.958;-7.470;2022-09-01T13:20:22;101022.44;;;20.01;52.07
64253;BME280;50592;52.958;-7.470;2022-09-01T13:22:48;101023.13;;;19.88;52.23
64253;BME280;50592;52.958;-7.470;2022-09-01T13:25:17;101026.28;;;19.92;52.14
64253;BME280;50592;52.958;-7.470;2022-09-01T13:27:44;101012.59;;;19.87;52.07
64253;BME280;50592;52.958;-7.470;2022-09-01T13:30:18;101007.69;;;19.90;51.36
64253;BME280;50592;52.958;-7.470;2022-09-01T13:32:45;101005.13;;;20.04;51.76
64253;BME280;50592;52.958;-7.470;2022-09-01T13:35:17;100998.56;;;20.35;50.57
64253;BME280;50592;52.958;-7.470;2022-09-01T13:37:44;100986.72;;;20.58;50.50
64253;BME280;50592;52.958;-7.470;2022-09-01T13:40:11;100982.75;;;20.89;49.71
64253;BME280;50592;52.958;-7.470;2022-09-01T13:42:43;100991.00;;;20.88;49.14
64253;BME280;50592;52.958;-7.470;2022-09-01T13:45:10;100988.69;;;20.78;49.28
64253;BME280;50592;52.958;-7.470;2022-09-01T13:47:42;100986.63;;;20.80;48.74
64253;BME280;50592;52.958;-7.470;2022-09-01T13:50:09;100975.66;;;20.75;48.39
64253;BME280;50592;52.958;-7.470;2022-09-01T13:52:37;100975.63;;;20.68;48.37
64253;BME280;50592;52.958;-7.470;2022-09-01T13:55:04;100968.78;;;20.65;47.81
64253;BME280;50592;52.958;-7.470;2022-09-01T13:57:30;100973.53;;;20.63;47.28
64253;BME280;50592;52.958;-7.470;2022-09-01T13:59:58;100965.72;;;20.75;47.36
64253;BME280;50592;52.958;-7.470;2022-09-01T14:02:24;100959.00;;;20.93;46.73
64253;BME280;50592;52.958;-7.470;2022-09-01T14:04:50;100951.28;;;20.76;46.46
64253;BME280;50592;52.958;-7.470;2022-09-01T14:07:16;100946.13;;;20.81;46.31
64253;BME280;50592;52.958;-7.470;2022-09-01T14:09:46;100955.50;;;20.92;46.04